createdAt,value
2022-11-04T00:00:08.102Z,19.55
2022-11-04T00:00:18.156Z,19.55
2022-11-04T00:00:29.904Z,19.54
2022-11-04T00:00:38.181Z,19.55
2022-11-04T00:00:48.121Z,19.55
2022-11-04T00:00:58.116Z,19.54
2022-11-04T00:01:08.168Z,19.53
2022-11-04T00:01:18.088Z,19.53
2022-11-04T00:01:28.087Z,19.53
2022-11-04T00:01:38.090Z,19.53
2022-11-04T00:01:48.161Z,19.54
2022-11-04T00:01:58.161Z,19.54
2022-11-04T00:02:08.130Z,19.54
2022-11-04T00:02:18.165Z,19.53
2022-11-04T00:02:28.127Z,19.53
2022-11-04T00:02:38.196Z,19.54
2022-11-04T00:02:48.154Z,19.55
2022-11-04T00:02:58.096Z,19.55
2022-11-04T00:03:08.439Z,19.52
2022-11-04T00:03:19.063Z,19.53
2022-11-04T00:03:28.099Z,19.53
2022-11-04T00:03:38.098Z,19.53
2022-11-04T00:03:48.101Z,19.53
2022-11-04T00:03:58.100Z,19.53
2022-11-04T00:04:08.101Z,19.54
2022-11-04T00:04:18.111Z,19.53
2022-11-04T00:04:28.106Z,19.53
2022-11-04T00:04:38.107Z,19.54
2022-11-04T00:04:48.113Z,19.54
2022-11-04T00:04:58.113Z,19.53
2022-11-04T00:05:08.110Z,19.55
2022-11-04T00:05:18.110Z,19.54
2022-11-04T00:05:28.114Z,19.53
2022-11-04T00:05:38.128Z,19.55
2022-11-04T00:05:48.115Z,19.55
2022-11-04T00:05:58.116Z,19.55
2022-11-04T00:06:08.116Z,19.54
2022-11-04T00:06:18.117Z,19.53
2022-11-04T00:06:28.116Z,19.55
2022-11-04T00:06:38.166Z,19.56
2022-11-04T00:06:48.122Z,19.56
2022-11-04T00:06:58.119Z,19.55
2022-11-04T00:07:08.122Z,19.57
2022-11-04T00:07:18.123Z,19.55
2022-11-04T00:07:28.121Z,19.55
2022-11-04T00:07:38.124Z,19.56
2022-11-04T00:07:48.125Z,19.56
2022-11-04T00:07:58.126Z,19.56
2022-11-04T00:08:08.127Z,19.56
2022-11-04T00:08:18.132Z,19.57
2022-11-04T00:08:28.132Z,19.55
2022-11-04T00:08:38.134Z,19.57
2022-11-04T00:08:48.132Z,19.58
2022-11-04T00:08:58.132Z,19.56
2022-11-04T00:09:08.136Z,19.56
2022-11-04T00:09:18.132Z,19.58
2022-11-04T00:09:28.141Z,19.55
2022-11-04T00:09:38.137Z,19.58
2022-11-04T00:09:48.135Z,19.57
2022-11-04T00:09:58.134Z,19.56
2022-11-04T00:10:08.135Z,19.55
2022-11-04T00:10:18.136Z,19.56
2022-11-04T00:10:28.142Z,19.56
2022-11-04T00:10:38.150Z,19.56
2022-11-04T00:10:48.143Z,19.55
2022-11-04T00:10:58.143Z,19.58
2022-11-04T00:11:08.143Z,19.56
2022-11-04T00:11:18.144Z,19.55
2022-11-04T00:11:28.145Z,19.57
2022-11-04T00:11:38.145Z,19.57
2022-11-04T00:11:48.147Z,19.58
2022-11-04T00:11:58.149Z,19.57
2022-11-04T00:12:08.149Z,19.56
2022-11-04T00:12:18.148Z,19.58
2022-11-04T00:12:28.150Z,19.57
2022-11-04T00:12:38.150Z,19.55
2022-11-04T00:12:48.151Z,19.57
2022-11-04T00:12:58.151Z,19.57
2022-11-04T00:13:08.512Z,19.57
2022-11-04T00:13:18.153Z,19.58
2022-11-04T00:13:28.154Z,19.57
2022-11-04T00:13:38.154Z,19.57
2022-11-04T00:13:48.158Z,19.59
2022-11-04T00:13:58.158Z,19.58
2022-11-04T00:14:08.159Z,19.59
2022-11-04T00:14:18.159Z,19.58
2022-11-04T00:14:28.160Z,19.59
2022-11-04T00:14:38.163Z,19.57
2022-11-04T00:14:48.160Z,19.57
2022-11-04T00:14:58.161Z,19.58
2022-11-04T00:15:08.166Z,19.58
2022-11-04T00:15:19.067Z,19.58
2022-11-04T00:15:28.163Z,19.58
2022-11-04T00:15:38.182Z,19.58
2022-11-04T00:15:48.165Z,19.59
2022-11-04T00:15:58.165Z,19.57
2022-11-04T00:16:08.150Z,19.59
2022-11-04T00:16:18.170Z,19.58
2022-11-04T00:16:28.173Z,19.59
2022-11-04T00:16:38.173Z,19.59
2022-11-04T00:16:48.172Z,19.59
2022-11-04T00:16:58.174Z,19.59
2022-11-04T00:17:08.174Z,19.58
2022-11-04T00:17:18.175Z,19.60
2022-11-04T00:17:28.175Z,19.59
2022-11-04T00:17:38.177Z,19.59
2022-11-04T00:17:48.178Z,19.59
2022-11-04T00:17:58.178Z,19.57
2022-11-04T00:18:08.181Z,19.58
2022-11-04T00:18:18.182Z,19.59
2022-11-04T00:18:28.183Z,19.59
2022-11-04T00:18:38.183Z,19.57
2022-11-04T00:18:48.183Z,19.59
2022-11-04T00:18:58.183Z,19.58
2022-11-04T00:19:08.184Z,19.58
2022-11-04T00:19:18.187Z,19.56
2022-11-04T00:19:28.190Z,19.59
2022-11-04T00:19:38.171Z,19.57
2022-11-04T00:19:48.189Z,19.58
2022-11-04T00:19:58.190Z,19.57
2022-11-04T00:20:08.212Z,19.58
2022-11-04T00:20:18.197Z,19.57
2022-11-04T00:20:28.191Z,19.56
2022-11-04T00:20:38.206Z,19.58
2022-11-04T00:20:48.194Z,19.59
2022-11-04T00:20:58.199Z,19.55
2022-11-04T00:21:08.199Z,19.58
2022-11-04T00:21:18.199Z,19.57
2022-11-04T00:21:28.198Z,19.57
2022-11-04T00:21:38.201Z,19.58
2022-11-04T00:21:48.201Z,19.57
2022-11-04T00:21:58.207Z,19.58
2022-11-04T00:22:08.203Z,19.59
2022-11-04T00:22:18.204Z,19.57
2022-11-04T00:22:28.208Z,19.59
2022-11-04T00:22:38.204Z,19.56
2022-11-04T00:22:48.207Z,19.59
2022-11-04T00:22:58.206Z,19.57
2022-11-04T00:23:08.485Z,19.56
2022-11-04T00:23:18.210Z,19.58
2022-11-04T00:23:28.208Z,19.57
2022-11-04T00:23:38.209Z,19.58
2022-11-04T00:23:48.212Z,19.58
2022-11-04T00:23:58.212Z,19.58
2022-11-04T00:24:08.213Z,19.58
2022-11-04T00:24:18.216Z,19.57
2022-11-04T00:24:28.215Z,19.57
2022-11-04T00:24:38.219Z,19.56
2022-11-04T00:24:48.219Z,19.55
2022-11-04T00:24:58.220Z,19.57
2022-11-04T00:25:08.222Z,19.55
2022-11-04T00:25:18.220Z,19.56
2022-11-04T00:25:28.312Z,19.59
2022-11-04T00:25:38.346Z,19.57
2022-11-04T00:25:48.225Z,19.57
2022-11-04T00:25:58.224Z,19.56
2022-11-04T00:26:08.225Z,19.56
2022-11-04T00:26:18.227Z,19.54
2022-11-04T00:26:28.231Z,19.56
2022-11-04T00:26:38.228Z,19.55
2022-11-04T00:26:48.229Z,19.56
2022-11-04T00:26:58.232Z,19.55
2022-11-04T00:27:08.231Z,19.56
2022-11-04T00:27:18.234Z,19.56
2022-11-04T00:27:28.239Z,19.56
2022-11-04T00:27:38.236Z,19.54
2022-11-04T00:27:48.238Z,19.55
2022-11-04T00:27:58.236Z,19.55
2022-11-04T00:28:08.534Z,19.55
2022-11-04T00:28:18.238Z,19.57
2022-11-04T00:28:28.259Z,19.56
2022-11-04T00:28:38.240Z,19.58
2022-11-04T00:28:48.243Z,19.56
2022-11-04T00:28:58.243Z,19.55
2022-11-04T00:29:08.243Z,19.55
2022-11-04T00:29:18.244Z,19.55
2022-11-04T00:29:28.247Z,19.58
2022-11-04T00:29:38.247Z,19.57
2022-11-04T00:29:48.246Z,19.57
2022-11-04T00:29:58.249Z,19.56
2022-11-04T00:30:08.251Z,19.56
2022-11-04T00:30:18.253Z,19.56
2022-11-04T00:30:28.259Z,19.57
2022-11-04T00:30:38.275Z,19.55
2022-11-04T00:30:48.253Z,19.56
2022-11-04T00:30:58.234Z,19.55
2022-11-04T00:31:08.253Z,19.56
2022-11-04T00:31:18.255Z,19.56
2022-11-04T00:31:28.258Z,19.56
2022-11-04T00:31:38.257Z,19.53
2022-11-04T00:31:48.259Z,19.55
2022-11-04T00:31:58.261Z,19.54
2022-11-04T00:32:08.262Z,19.56
2022-11-04T00:32:18.264Z,19.55
2022-11-04T00:32:28.273Z,19.56
2022-11-04T00:32:38.263Z,19.56
2022-11-04T00:32:48.264Z,19.55
2022-11-04T00:32:58.249Z,19.55
2022-11-04T00:33:08.265Z,19.55
2022-11-04T00:33:18.266Z,19.56
2022-11-04T00:33:28.269Z,19.54
2022-11-04T00:33:38.272Z,19.55
2022-11-04T00:33:48.252Z,19.55
2022-11-04T00:33:58.270Z,19.55
2022-11-04T00:34:08.277Z,19.55
2022-11-04T00:34:18.271Z,19.55
2022-11-04T00:34:28.274Z,19.54
2022-11-04T00:34:38.273Z,19.55
2022-11-04T00:34:48.274Z,19.55
2022-11-04T00:34:58.277Z,19.52
2022-11-04T00:35:08.278Z,19.54
2022-11-04T00:35:18.278Z,19.55
2022-11-04T00:35:28.281Z,19.52
2022-11-04T00:35:38.299Z,19.54
2022-11-04T00:35:48.283Z,19.55
2022-11-04T00:35:58.282Z,19.54
2022-11-04T00:36:08.284Z,19.55
2022-11-04T00:36:18.287Z,19.55
2022-11-04T00:36:28.298Z,19.55
2022-11-04T00:36:38.284Z,19.55
2022-11-04T00:36:48.287Z,19.54
2022-11-04T00:36:58.289Z,19.55
2022-11-04T00:37:08.290Z,19.55
2022-11-04T00:37:18.293Z,19.55
2022-11-04T00:37:28.292Z,19.55
2022-11-04T00:37:38.297Z,19.55
2022-11-04T00:37:48.294Z,19.53
2022-11-04T00:37:58.300Z,19.54
2022-11-04T00:38:08.660Z,19.53
2022-11-04T00:38:18.296Z,19.55
2022-11-04T00:38:28.300Z,19.53
2022-11-04T00:38:38.300Z,19.53
2022-11-04T00:38:48.302Z,19.55
2022-11-04T00:38:58.298Z,19.55
2022-11-04T00:39:08.299Z,19.53
2022-11-04T00:39:18.300Z,19.55
2022-11-04T00:39:28.300Z,19.54
2022-11-04T00:39:38.301Z,19.53
2022-11-04T00:39:48.308Z,19.52
2022-11-04T00:39:58.328Z,19.53
2022-11-04T00:40:08.316Z,19.54
2022-11-04T00:40:18.305Z,19.55
2022-11-04T00:40:28.306Z,19.54
2022-11-04T00:40:38.325Z,19.53
2022-11-04T00:40:48.310Z,19.52
2022-11-04T00:40:58.308Z,19.53
2022-11-04T00:41:08.310Z,19.55
2022-11-04T00:41:18.312Z,19.53
2022-11-04T00:41:28.715Z,19.56
2022-11-04T00:41:38.312Z,19.56
2022-11-04T00:41:48.296Z,19.55
2022-11-04T00:41:58.312Z,19.56
2022-11-04T00:42:08.315Z,19.54
2022-11-04T00:42:18.314Z,19.55
2022-11-04T00:42:28.321Z,19.55
2022-11-04T00:42:38.317Z,19.54
2022-11-04T00:42:48.317Z,19.54
2022-11-04T00:42:58.318Z,19.55
2022-11-04T00:43:08.319Z,19.55
2022-11-04T00:43:18.322Z,19.54
2022-11-04T00:43:28.320Z,19.55
2022-11-04T00:43:38.322Z,19.54
2022-11-04T00:43:48.322Z,19.55
2022-11-04T00:43:58.327Z,19.54
2022-11-04T00:44:08.325Z,19.54
2022-11-04T00:44:18.326Z,19.55
2022-11-04T00:44:28.326Z,19.54
2022-11-04T00:44:38.325Z,19.55
2022-11-04T00:44:48.328Z,19.54
2022-11-04T00:44:58.332Z,19.55
2022-11-04T00:45:08.332Z,19.55
2022-11-04T00:45:18.332Z,19.55
2022-11-04T00:45:28.330Z,19.54
2022-11-04T00:45:38.348Z,19.54
2022-11-04T00:45:48.335Z,19.55
2022-11-04T00:45:58.334Z,19.54
2022-11-04T00:46:08.317Z,19.55
2022-11-04T00:46:18.336Z,19.54
2022-11-04T00:46:28.334Z,19.54
2022-11-04T00:46:38.340Z,19.55
2022-11-04T00:46:48.341Z,19.54
2022-11-04T00:46:58.340Z,19.55
2022-11-04T00:47:08.344Z,19.55
2022-11-04T00:47:18.342Z,19.55
2022-11-04T00:47:28.346Z,19.56
2022-11-04T00:47:38.346Z,19.54
2022-11-04T00:47:48.348Z,19.54
2022-11-04T00:47:58.347Z,19.54
2022-11-04T00:48:08.711Z,19.56
2022-11-04T00:48:18.349Z,19.54
2022-11-04T00:48:28.351Z,19.54
2022-11-04T00:48:38.351Z,19.56
2022-11-04T00:48:48.361Z,19.54
2022-11-04T00:48:58.383Z,19.55
2022-11-04T00:49:08.357Z,19.54
2022-11-04T00:49:18.355Z,19.54
2022-11-04T00:49:28.357Z,19.54
2022-11-04T00:49:38.359Z,19.54
2022-11-04T00:49:48.359Z,19.54
2022-11-04T00:49:58.362Z,19.54
2022-11-04T00:50:08.365Z,19.55
2022-11-04T00:50:18.366Z,19.55
2022-11-04T00:50:28.367Z,19.54
2022-11-04T00:50:38.382Z,19.54
2022-11-04T00:50:48.366Z,19.55
2022-11-04T00:50:58.367Z,19.55
2022-11-04T00:51:08.408Z,19.55
2022-11-04T00:51:18.372Z,19.54
2022-11-04T00:51:28.372Z,19.54
2022-11-04T00:51:38.373Z,19.55
2022-11-04T00:51:48.393Z,19.54
2022-11-04T00:51:58.375Z,19.54
2022-11-04T00:52:08.380Z,19.54
2022-11-04T00:52:18.377Z,19.53
2022-11-04T00:52:28.377Z,19.56
2022-11-04T00:52:38.379Z,19.56
2022-11-04T00:52:48.383Z,19.54
2022-11-04T00:52:58.381Z,19.54
2022-11-04T00:53:08.786Z,19.55
2022-11-04T00:53:18.382Z,19.54
2022-11-04T00:53:28.383Z,19.55
2022-11-04T00:53:38.391Z,19.54
2022-11-04T00:53:48.387Z,19.54
2022-11-04T00:53:58.476Z,19.54
2022-11-04T00:54:08.390Z,19.55
2022-11-04T00:54:18.388Z,19.56
2022-11-04T00:54:28.390Z,19.56
2022-11-04T00:54:38.390Z,19.55
2022-11-04T00:54:48.391Z,19.54
2022-11-04T00:54:58.392Z,19.55
2022-11-04T00:55:08.397Z,19.56
2022-11-04T00:55:18.394Z,19.53
2022-11-04T00:55:28.392Z,19.55
2022-11-04T00:55:38.415Z,19.56
2022-11-04T00:55:48.397Z,19.55
2022-11-04T00:55:58.400Z,19.57
2022-11-04T00:56:08.398Z,19.57
2022-11-04T00:56:18.398Z,19.59
2022-11-04T00:56:28.396Z,19.57
2022-11-04T00:56:38.400Z,19.59
2022-11-04T00:56:48.402Z,19.58
2022-11-04T00:56:58.403Z,19.57
2022-11-04T00:57:08.402Z,19.59
2022-11-04T00:57:18.404Z,19.56
2022-11-04T00:57:28.405Z,19.58
2022-11-04T00:57:38.404Z,19.57
2022-11-04T00:57:48.406Z,19.58
2022-11-04T00:57:58.416Z,19.57
2022-11-04T00:58:08.409Z,19.56
2022-11-04T00:58:18.408Z,19.58
2022-11-04T00:58:28.410Z,19.57
2022-11-04T00:58:38.409Z,19.58
2022-11-04T00:58:48.412Z,19.57
2022-11-04T00:58:58.412Z,19.58
2022-11-04T00:59:11.775Z,19.57
2022-11-04T00:59:19.399Z,19.56
2022-11-04T00:59:28.421Z,19.55
2022-11-04T00:59:38.424Z,19.55
2022-11-04T00:59:48.418Z,19.56
2022-11-04T00:59:58.418Z,19.56
2022-11-04T01:00:08.420Z,19.56
2022-11-04T01:00:18.421Z,19.56
2022-11-04T01:00:28.419Z,19.55
2022-11-04T01:00:38.467Z,19.57
2022-11-04T01:00:48.421Z,19.57
2022-11-04T01:00:58.449Z,19.56
2022-11-04T01:01:08.493Z,19.57
2022-11-04T01:01:18.637Z,19.57
2022-11-04T01:01:28.525Z,19.57
2022-11-04T01:01:38.620Z,19.55
2022-11-04T01:01:48.583Z,19.57
2022-11-04T01:01:58.546Z,19.56
2022-11-04T01:02:08.569Z,19.57
2022-11-04T01:02:18.736Z,19.56
2022-11-04T01:02:28.587Z,19.57
2022-11-04T01:02:38.505Z,19.57
2022-11-04T01:02:48.474Z,19.56
2022-11-04T01:02:58.435Z,19.55
2022-11-04T01:03:08.911Z,19.56
2022-11-04T01:03:18.435Z,19.57
2022-11-04T01:03:28.437Z,19.57
2022-11-04T01:03:38.444Z,19.57
2022-11-04T01:03:48.468Z,19.57
2022-11-04T01:03:58.438Z,19.56
2022-11-04T01:04:08.439Z,19.56
2022-11-04T01:04:18.440Z,19.56
2022-11-04T01:04:28.438Z,19.59
2022-11-04T01:04:38.440Z,19.58
2022-11-04T01:04:48.442Z,19.59
2022-11-04T01:04:58.443Z,19.58
2022-11-04T01:05:08.444Z,19.58
2022-11-04T01:05:18.444Z,19.57
2022-11-04T01:05:28.453Z,19.58
2022-11-04T01:05:38.448Z,19.59
2022-11-04T01:05:48.451Z,19.59
2022-11-04T01:05:58.448Z,19.59
2022-11-04T01:06:08.449Z,19.58
2022-11-04T01:06:18.453Z,19.57
2022-11-04T01:06:28.452Z,19.57
2022-11-04T01:06:38.457Z,19.56
2022-11-04T01:06:48.453Z,19.58
2022-11-04T01:06:58.452Z,19.57
2022-11-04T01:07:08.459Z,19.58
2022-11-04T01:07:18.457Z,19.58
2022-11-04T01:07:28.462Z,19.59
2022-11-04T01:07:43.387Z,19.58
2022-11-04T01:07:49.458Z,19.54
2022-11-04T01:07:58.464Z,19.55
2022-11-04T01:08:08.444Z,19.58
2022-11-04T01:08:18.462Z,19.55
2022-11-04T01:08:28.464Z,19.54
2022-11-04T01:08:38.464Z,19.56
2022-11-04T01:08:48.448Z,19.56
2022-11-04T01:08:58.466Z,19.57
2022-11-04T01:09:08.475Z,19.54
2022-11-04T01:09:18.471Z,19.57
2022-11-04T01:09:28.470Z,19.58
2022-11-04T01:09:38.454Z,19.56
2022-11-04T01:09:48.473Z,19.56
2022-11-04T01:09:58.481Z,19.57
2022-11-04T01:10:08.475Z,19.57
2022-11-04T01:10:18.476Z,19.56
2022-11-04T01:10:28.476Z,19.55
2022-11-04T01:10:38.476Z,19.56
2022-11-04T01:10:48.480Z,19.57
2022-11-04T01:10:58.480Z,19.57
2022-11-04T01:11:08.477Z,19.59
2022-11-04T01:11:18.462Z,19.58
2022-11-04T01:11:28.484Z,19.58
2022-11-04T01:11:38.483Z,19.57
2022-11-04T01:11:48.488Z,19.57
2022-11-04T01:11:58.485Z,19.55
2022-11-04T01:12:08.489Z,19.57
2022-11-04T01:12:18.490Z,19.58
2022-11-04T01:12:28.488Z,19.57
2022-11-04T01:12:38.488Z,19.59
2022-11-04T01:12:48.489Z,19.57
2022-11-04T01:12:58.492Z,19.58
2022-11-04T01:13:08.890Z,19.59
2022-11-04T01:13:18.490Z,19.58
2022-11-04T01:13:28.492Z,19.56
2022-11-04T01:13:38.492Z,19.57
2022-11-04T01:13:48.495Z,19.57
2022-11-04T01:13:58.495Z,19.59
2022-11-04T01:14:08.479Z,19.59
2022-11-04T01:14:18.500Z,19.57
2022-11-04T01:14:28.497Z,19.59
2022-11-04T01:14:38.499Z,19.60
2022-11-04T01:14:48.501Z,19.58
2022-11-04T01:14:58.501Z,19.58
2022-11-04T01:15:08.501Z,19.56
2022-11-04T01:15:18.503Z,19.57
2022-11-04T01:15:28.504Z,19.58
2022-11-04T01:15:38.505Z,19.58
2022-11-04T01:15:48.511Z,19.59
2022-11-04T01:15:58.509Z,19.57
2022-11-04T01:16:08.523Z,19.58
2022-11-04T01:16:18.552Z,19.56
2022-11-04T01:16:38.511Z,19.58
2022-11-04T01:16:48.512Z,19.57
2022-11-04T01:16:58.514Z,19.59
2022-11-04T01:17:08.515Z,19.58
2022-11-04T01:17:18.516Z,19.58
2022-11-04T01:17:28.520Z,19.60
2022-11-04T01:17:38.518Z,19.58
2022-11-04T01:17:48.520Z,19.58
2022-11-04T01:17:58.519Z,19.59
2022-11-04T01:18:08.889Z,19.59
2022-11-04T01:18:18.524Z,19.58
2022-11-04T01:18:28.523Z,19.59
2022-11-04T01:18:38.526Z,19.58
2022-11-04T01:18:48.525Z,19.58
2022-11-04T01:18:58.527Z,19.57
2022-11-04T01:19:08.528Z,19.59
2022-11-04T01:19:18.528Z,19.59
2022-11-04T01:19:28.527Z,19.59
2022-11-04T01:19:38.534Z,19.58
2022-11-04T01:19:48.532Z,19.59
2022-11-04T01:19:58.533Z,19.58
2022-11-04T01:20:08.532Z,19.57
2022-11-04T01:20:18.532Z,19.58
2022-11-04T01:20:28.533Z,19.58
2022-11-04T01:20:38.534Z,19.58
2022-11-04T01:20:48.538Z,19.58
2022-11-04T01:20:58.539Z,19.58
2022-11-04T01:21:08.540Z,19.58
2022-11-04T01:21:18.538Z,19.57
2022-11-04T01:21:28.543Z,19.59
2022-11-04T01:21:38.537Z,19.58
2022-11-04T01:21:48.539Z,19.59
2022-11-04T01:21:58.540Z,19.59
2022-11-04T01:22:08.541Z,19.58
2022-11-04T01:22:18.546Z,19.58
2022-11-04T01:22:28.545Z,19.59
2022-11-04T01:22:38.544Z,19.60
2022-11-04T01:22:48.548Z,19.58
2022-11-04T01:22:58.548Z,19.59
2022-11-04T01:23:08.549Z,19.58
2022-11-04T01:23:18.549Z,19.58
2022-11-04T01:23:28.578Z,19.59
2022-11-04T01:23:38.550Z,19.60
2022-11-04T01:23:48.554Z,19.59
2022-11-04T01:23:58.555Z,19.58
2022-11-04T01:24:08.554Z,19.58
2022-11-04T01:24:18.538Z,19.60
2022-11-04T01:24:28.541Z,19.59
2022-11-04T01:24:38.558Z,19.61
2022-11-04T01:24:48.561Z,19.59
2022-11-04T01:24:58.562Z,19.60
2022-11-04T01:25:08.564Z,19.58
2022-11-04T01:25:18.563Z,19.60
2022-11-04T01:25:28.565Z,19.59
2022-11-04T01:25:38.564Z,19.58
2022-11-04T01:25:48.569Z,19.60
2022-11-04T01:25:58.569Z,19.59
2022-11-04T01:26:08.568Z,19.59
2022-11-04T01:26:18.570Z,19.59
2022-11-04T01:26:28.577Z,19.59
2022-11-04T01:26:38.574Z,19.59
2022-11-04T01:26:48.576Z,19.59
2022-11-04T01:26:58.575Z,19.61
2022-11-04T01:27:08.576Z,19.59
2022-11-04T01:27:18.576Z,19.59
2022-11-04T01:27:28.579Z,19.60
2022-11-04T01:27:38.578Z,19.60
2022-11-04T01:27:48.581Z,19.60
2022-11-04T01:27:58.563Z,19.60
2022-11-04T01:28:08.916Z,19.59
2022-11-04T01:28:18.583Z,19.60
2022-11-04T01:28:28.585Z,19.58
2022-11-04T01:28:38.587Z,19.61
2022-11-04T01:28:48.589Z,19.60
2022-11-04T01:28:58.591Z,19.59
2022-11-04T01:29:08.597Z,19.61
2022-11-04T01:29:18.589Z,19.59
2022-11-04T01:29:28.593Z,19.59
2022-11-04T01:29:38.593Z,19.59
2022-11-04T01:29:48.592Z,19.58
2022-11-04T01:29:58.592Z,19.60
2022-11-04T01:30:08.595Z,19.59
2022-11-04T01:30:18.595Z,19.59
2022-11-04T01:30:28.592Z,19.60
2022-11-04T01:30:38.595Z,19.60
2022-11-04T01:30:48.599Z,19.60
2022-11-04T01:30:58.601Z,19.60
2022-11-04T01:31:08.597Z,19.59
2022-11-04T01:31:18.597Z,19.60
2022-11-04T01:31:28.607Z,19.59
2022-11-04T01:31:38.601Z,19.59
2022-11-04T01:31:48.600Z,19.58
2022-11-04T01:31:58.603Z,19.59
2022-11-04T01:32:08.604Z,19.59
2022-11-04T01:32:18.605Z,19.58
2022-11-04T01:32:28.588Z,19.59
2022-11-04T01:32:38.607Z,19.59
2022-11-04T01:32:48.608Z,19.59
2022-11-04T01:32:58.608Z,19.59
2022-11-04T01:33:08.609Z,19.59
2022-11-04T01:33:18.610Z,19.58
2022-11-04T01:33:28.616Z,19.59
2022-11-04T01:33:38.613Z,19.58
2022-11-04T01:33:48.613Z,19.57
2022-11-04T01:33:58.614Z,19.59
2022-11-04T01:34:08.617Z,19.59
2022-11-04T01:34:18.619Z,19.58
2022-11-04T01:34:28.620Z,19.59
2022-11-04T01:34:42.479Z,19.57
2022-11-04T01:34:49.620Z,19.55
2022-11-04T01:34:58.622Z,19.57
2022-11-04T01:35:08.623Z,19.55
2022-11-04T01:35:18.624Z,19.55
2022-11-04T01:35:28.624Z,19.56
2022-11-04T01:35:38.628Z,19.56
2022-11-04T01:35:48.638Z,19.57
2022-11-04T01:35:58.629Z,19.56
2022-11-04T01:36:08.628Z,19.57
2022-11-04T01:36:18.629Z,19.55
2022-11-04T01:36:28.632Z,19.55
2022-11-04T01:36:38.634Z,19.57
2022-11-04T01:36:48.634Z,19.56
2022-11-04T01:36:58.634Z,19.56
2022-11-04T01:37:08.637Z,19.57
2022-11-04T01:37:18.638Z,19.56
2022-11-04T01:37:28.638Z,19.57
2022-11-04T01:37:38.646Z,19.57
2022-11-04T01:37:48.641Z,19.58
2022-11-04T01:37:58.641Z,19.57
2022-11-04T01:38:08.960Z,19.58
2022-11-04T01:38:18.642Z,19.57
2022-11-04T01:38:28.651Z,19.58
2022-11-04T01:38:38.644Z,19.58
2022-11-04T01:38:48.643Z,19.58
2022-11-04T01:38:58.650Z,19.58
2022-11-04T01:39:08.647Z,19.57
2022-11-04T01:39:18.648Z,19.57
2022-11-04T01:39:28.649Z,19.58
2022-11-04T01:39:38.651Z,19.56
2022-11-04T01:39:48.648Z,19.57
2022-11-04T01:39:58.650Z,19.59
2022-11-04T01:40:08.671Z,19.58
2022-11-04T01:40:18.651Z,19.58
2022-11-04T01:40:28.654Z,19.57
2022-11-04T01:40:38.654Z,19.58
2022-11-04T01:40:48.673Z,19.57
2022-11-04T01:40:58.658Z,19.58
2022-11-04T01:41:08.655Z,19.60
2022-11-04T01:41:18.657Z,19.58
2022-11-04T01:41:28.658Z,19.58
2022-11-04T01:41:38.659Z,19.58
2022-11-04T01:41:48.662Z,19.58
2022-11-04T01:41:58.683Z,19.56
2022-11-04T01:42:08.662Z,19.59
2022-11-04T01:42:18.662Z,19.57
2022-11-04T01:42:28.664Z,19.58
2022-11-04T01:42:38.667Z,19.59
2022-11-04T01:42:48.673Z,19.58
2022-11-04T01:42:58.665Z,19.56
2022-11-04T01:43:08.936Z,19.57
2022-11-04T01:43:18.666Z,19.58
2022-11-04T01:43:28.667Z,19.55
2022-11-04T01:43:38.668Z,19.57
2022-11-04T01:43:48.670Z,19.57
2022-11-04T01:43:58.669Z,19.56
2022-11-04T01:44:08.669Z,19.59
2022-11-04T01:44:18.671Z,19.58
2022-11-04T01:44:28.671Z,19.56
2022-11-04T01:44:38.670Z,19.56
2022-11-04T01:44:48.672Z,19.56
2022-11-04T01:44:58.676Z,19.56
2022-11-04T01:45:08.675Z,19.57
2022-11-04T01:45:18.680Z,19.56
2022-11-04T01:45:28.675Z,19.55
2022-11-04T01:45:38.677Z,19.56
2022-11-04T01:45:48.693Z,19.55
2022-11-04T01:45:58.682Z,19.56
2022-11-04T01:46:08.678Z,19.55
2022-11-04T01:46:18.683Z,19.55
2022-11-04T01:46:28.681Z,19.56
2022-11-04T01:46:38.682Z,19.56
2022-11-04T01:46:48.684Z,19.57
2022-11-04T01:46:58.714Z,19.55
2022-11-04T01:47:08.682Z,19.57
2022-11-04T01:47:18.683Z,19.57
2022-11-04T01:47:28.688Z,19.57
2022-11-04T01:47:38.686Z,19.57
2022-11-04T01:47:48.688Z,19.56
2022-11-04T01:47:58.687Z,19.56
2022-11-04T01:48:08.696Z,19.57
2022-11-04T01:48:18.693Z,19.57
2022-11-04T01:48:28.690Z,19.56
2022-11-04T01:48:38.691Z,19.56
2022-11-04T01:48:48.696Z,19.57
2022-11-04T01:48:58.693Z,19.56
2022-11-04T01:49:08.694Z,19.56
2022-11-04T01:49:18.696Z,19.54
2022-11-04T01:49:28.697Z,19.56
2022-11-04T01:49:42.355Z,19.56
2022-11-04T01:49:48.697Z,19.52
2022-11-04T01:49:58.700Z,19.53
2022-11-04T01:50:08.701Z,19.52
2022-11-04T01:50:18.701Z,19.54
2022-11-04T01:50:28.701Z,19.55
2022-11-04T01:50:38.699Z,19.55
2022-11-04T01:50:48.714Z,19.53
2022-11-04T01:50:58.736Z,19.52
2022-11-04T01:51:08.717Z,19.54
2022-11-04T01:51:18.706Z,19.55
2022-11-04T01:51:28.708Z,19.54
2022-11-04T01:51:38.708Z,19.55
2022-11-04T01:51:48.711Z,19.54
2022-11-04T01:51:58.714Z,19.55
2022-11-04T01:52:08.711Z,19.56
2022-11-04T01:52:18.711Z,19.54
2022-11-04T01:52:28.712Z,19.53
2022-11-04T01:52:38.718Z,19.55
2022-11-04T01:52:48.716Z,19.54
2022-11-04T01:52:58.718Z,19.54
2022-11-04T01:53:09.043Z,19.53
2022-11-04T01:53:18.718Z,19.54
2022-11-04T01:53:28.702Z,19.55
2022-11-04T01:53:38.720Z,19.55
2022-11-04T01:53:48.720Z,19.56
2022-11-04T01:53:58.721Z,19.55
2022-11-04T01:54:08.724Z,19.53
2022-11-04T01:54:18.722Z,19.55
2022-11-04T01:54:28.723Z,19.54
2022-11-04T01:54:38.745Z,19.54
2022-11-04T01:54:48.726Z,19.53
2022-11-04T01:54:58.725Z,19.53
2022-11-04T01:55:08.726Z,19.55
2022-11-04T01:55:18.729Z,19.54
2022-11-04T01:55:28.727Z,19.53
2022-11-04T01:55:38.728Z,19.54
2022-11-04T01:55:48.747Z,19.54
2022-11-04T01:55:58.729Z,19.54
2022-11-04T01:56:08.731Z,19.53
2022-11-04T01:56:18.732Z,19.53
2022-11-04T01:56:28.731Z,19.54
2022-11-04T01:56:38.732Z,19.53
2022-11-04T01:56:48.735Z,19.54
2022-11-04T01:56:58.736Z,19.54
2022-11-04T01:57:08.932Z,19.55
2022-11-04T01:57:18.738Z,19.54
2022-11-04T01:57:28.737Z,19.54
2022-11-04T01:57:38.739Z,19.55
2022-11-04T01:57:48.742Z,19.54
2022-11-04T01:57:58.741Z,19.53
2022-11-04T01:58:08.745Z,19.53
2022-11-04T01:58:18.742Z,19.52
2022-11-04T01:58:28.742Z,19.53
2022-11-04T01:58:38.746Z,19.54
2022-11-04T01:58:48.782Z,19.54
2022-11-04T01:58:58.748Z,19.53
2022-11-04T01:59:08.745Z,19.53
2022-11-04T01:59:18.746Z,19.54
2022-11-04T01:59:28.748Z,19.53
2022-11-04T01:59:38.750Z,19.54
2022-11-04T01:59:48.753Z,19.54
2022-11-04T01:59:58.754Z,19.53
2022-11-04T02:00:08.756Z,19.54
2022-11-04T02:00:18.753Z,19.54
2022-11-04T02:00:28.757Z,19.55
2022-11-04T02:00:38.758Z,19.54
2022-11-04T02:00:48.827Z,19.54
2022-11-04T02:00:58.824Z,19.55
2022-11-04T02:01:08.821Z,19.55
2022-11-04T02:01:18.867Z,19.53
2022-11-04T02:01:28.932Z,19.54
2022-11-04T02:01:38.922Z,19.54
2022-11-04T02:01:48.956Z,19.52
2022-11-04T02:01:58.871Z,19.53
2022-11-04T02:02:08.935Z,19.52
2022-11-04T02:02:18.924Z,19.53
2022-11-04T02:02:28.830Z,19.53
2022-11-04T02:02:38.812Z,19.54
2022-11-04T02:02:48.790Z,19.53
2022-11-04T02:02:58.768Z,19.54
2022-11-04T02:03:08.989Z,19.53
2022-11-04T02:03:18.768Z,19.54
2022-11-04T02:03:28.751Z,19.54
2022-11-04T02:03:38.771Z,19.53
2022-11-04T02:03:48.769Z,19.54
2022-11-04T02:03:58.773Z,19.53
2022-11-04T02:04:08.772Z,19.52
2022-11-04T02:04:18.775Z,19.54
2022-11-04T02:04:28.787Z,19.53
2022-11-04T02:04:38.777Z,19.52
2022-11-04T02:04:48.775Z,19.53
2022-11-04T02:04:58.776Z,19.54
2022-11-04T02:05:08.777Z,19.53
2022-11-04T02:05:18.778Z,19.53
2022-11-04T02:05:28.781Z,19.54
2022-11-04T02:05:38.780Z,19.52
2022-11-04T02:05:48.781Z,19.53
2022-11-04T02:05:58.795Z,19.53
2022-11-04T02:06:08.787Z,19.53
2022-11-04T02:06:18.787Z,19.53
2022-11-04T02:06:28.787Z,19.52
2022-11-04T02:06:38.792Z,19.54
2022-11-04T02:06:48.829Z,19.54
2022-11-04T02:06:58.790Z,19.53
2022-11-04T02:07:08.791Z,19.52
2022-11-04T02:07:18.793Z,19.53
2022-11-04T02:07:28.794Z,19.53
2022-11-04T02:07:38.794Z,19.52
2022-11-04T02:07:48.794Z,19.51
2022-11-04T02:07:58.794Z,19.51
2022-11-04T02:08:08.796Z,19.51
2022-11-04T02:08:18.795Z,19.52
2022-11-04T02:08:28.802Z,19.51
2022-11-04T02:08:38.800Z,19.51
2022-11-04T02:08:48.799Z,19.54
2022-11-04T02:08:58.851Z,19.54